Time;durP1;ratioP1;P1;durP2;ratioP2;P2;SDS_P1;SDS_P2;PMS_P1;PMS_P2;Temp;Humidity;BMP_temperature;BMP_pressure;BME280_temperature;BME280_humidity;BME280_pressure;Samples;Min_cycle;Max_cycle;Signal;HPM_P1;HPM_P2
2023/01/02 00:00:18;;;;;;;16.42;6.72;;;10.50;99.90;;;;;;5060277;28;20029;-70
2023/01/02 00:02:43;;;;;;;19.40;7.05;;;10.40;99.90;;;;;;5059713;28;20029;-72
2023/01/02 00:05:10;;;;;;;15.80;6.63;;;10.40;99.90;;;;;;5060547;28;20032;-72
2023/01/02 00:07:36;;;;;;;18.50;7.30;;;10.40;99.90;;;;;;5075948;28;20033;-73
2023/01/02 00:10:02;;;;;;;24.08;8.00;;;10.40;99.90;;;;;;5052593;28;20028;-72
2023/01/02 00:12:27;;;;;;;16.55;7.35;;;10.40;99.90;;;;;;5051617;28;20036;-71
2023/01/02 00:14:53;;;;;;;19.75;8.27;;;10.40;99.90;;;;;;5045492;28;20128;-71
2023/01/02 00:17:19;;;;;;;23.25;8.90;;;10.40;99.90;;;;;;5053820;28;20025;-72
2023/01/02 00:19:45;;;;;;;20.08;8.23;;;10.40;99.90;;;;;;5052269;28;20021;-72
2023/01/02 00:22:10;;;;;;;21.90;7.40;;;10.40;99.90;;;;;;5051736;28;20080;-71
2023/01/02 00:24:36;;;;;;;15.30;6.93;;;10.50;99.90;;;;;;5043988;28;20036;-73
2023/01/02 00:27:01;;;;;;;19.27;7.15;;;10.50;99.90;;;;;;5059828;28;20028;-74
2023/01/02 00:29:27;;;;;;;15.48;6.63;;;10.40;99.90;;;;;;5059732;28;20021;-72
2023/01/02 00:31:53;;;;;;;20.02;7.78;;;10.50;99.90;;;;;;5041554;28;20488;-72
2023/01/02 00:34:18;;;;;;;20.20;7.38;;;10.50;99.90;;;;;;5059342;28;20047;-73
2023/01/02 00:36:44;;;;;;;18.17;6.85;;;10.50;99.90;;;;;;5059150;28;20025;-73
2023/01/02 00:39:09;;;;;;;17.52;7.25;;;10.50;99.90;;;;;;5059590;28;20088;-72
2023/01/02 00:41:35;;;;;;;17.58;7.82;;;10.50;99.90;;;;;;5059753;28;20023;-72
2023/01/02 00:44:00;;;;;;;19.77;7.93;;;10.50;99.90;;;;;;5059904;28;20587;-73
2023/01/02 00:46:26;;;;;;;19.70;8.07;;;10.60;99.90;;;;;;5044343;28;20029;-73
2023/01/02 00:48:51;;;;;;;16.55;7.93;;;10.50;99.90;;;;;;5059719;28;20041;-73
2023/01/02 00:51:17;;;;;;;22.40;8.43;;;10.60;99.90;;;;;;5059145;28;20028;-73
2023/01/02 00:53:43;;;;;;;21.50;8.27;;;10.60;99.90;;;;;;5059334;28;20033;-71
2023/01/02 00:56:08;;;;;;;16.65;8.20;;;10.50;99.90;;;;;;5059610;28;20033;-72
2023/01/02 00:58:34;;;;;;;20.15;8.13;;;10.60;99.90;;;;;;5059718;28;20056;-73
2023/01/02 01:01:00;;;;;;;14.23;6.55;;;10.60;99.90;;;;;;5058781;28;20365;-74
2023/01/02 01:03:25;;;;;;;17.20;7.65;;;10.60;99.90;;;;;;5040776;28;20027;-72
2023/01/02 01:05:51;;;;;;;15.68;7.20;;;10.50;99.90;;;;;;5041362;28;20477;-72
2023/01/02 01:08:16;;;;;;;17.33;7.32;;;10.50;99.90;;;;;;5059325;28;20074;-72
2023/01/02 01:10:42;;;;;;;16.98;7.40;;;10.50;99.90;;;;;;5059715;28;20540;-71
2023/01/02 01:13:08;;;;;;;17.10;6.90;;;10.40;99.90;;;;;;5051902;28;20029;-72
2023/01/02 01:15:33;;;;;;;19.17;6.85;;;10.40;99.90;;;;;;5059102;28;20025;-72
2023/01/02 01:17:59;;;;;;;16.45;6.50;;;10.50;99.90;;;;;;5059353;28;20045;-72
2023/01/02 01:20:25;;;;;;;14.57;6.22;;;10.50;99.90;;;;;;5059205;28;20137;-71
2023/01/02 01:22:50;;;;;;;15.40;6.00;;;10.40;99.90;;;;;;5041642;28;20075;-72
2023/01/02 01:25:16;;;;;;;14.77;6.50;;;10.50;99.90;;;;;;5060243;28;20024;-74
2023/01/02 01:27:44;;;;;;;15.88;7.07;;;10.50;99.90;;;;;;5041087;28;20021;-73
2023/01/02 01:30:10;;;;;;;21.27;6.88;;;10.50;99.90;;;;;;5059852;28;20025;-73
2023/01/02 01:32:36;;;;;;;15.48;6.97;;;10.50;99.90;;;;;;5060281;28;20017;-73
2023/01/02 01:35:02;;;;;;;18.73;6.30;;;10.50;99.90;;;;;;5060083;28;20749;-72
2023/01/02 01:37:27;;;;;;;15.60;6.28;;;10.50;99.90;;;;;;5041904;28;20042;-73
2023/01/02 01:39:53;;;;;;;13.63;6.00;;;10.50;99.90;;;;;;5059200;28;20067;-73
2023/01/02 01:42:19;;;;;;;21.17;7.60;;;10.50;99.90;;;;;;5061122;28;20116;-72
2023/01/02 01:44:53;;;;;;;16.83;6.63;;;10.50;99.90;;;;;;5046102;28;20021;-72
2023/01/02 01:47:18;;;;;;;15.75;6.68;;;10.50;99.90;;;;;;5064410;28;20843;-71
2023/01/02 01:49:45;;;;;;;18.05;7.32;;;10.50;99.90;;;;;;5064207;28;20045;-71
2023/01/02 01:52:16;;;;;;;19.73;7.50;;;10.50;99.90;;;;;;5063255;28;20103;-72
2023/01/02 01:54:48;;;;;;;22.23;6.47;;;10.50;99.90;;;;;;5045870;28;20047;-72
2023/01/02 01:57:19;;;;;;;15.18;7.03;;;10.50;99.90;;;;;;5064666;28;20047;-73
2023/01/02 01:59:46;;;;;;;15.98;6.32;;;10.50;99.90;;;;;;5064322;28;20032;-72
2023/01/02 02:02:13;;;;;;;13.95;6.35;;;10.50;99.90;;;;;;5063773;28;20055;-72
2023/01/02 02:04:41;;;;;;;16.52;7.05;;;10.60;99.90;;;;;;5064611;28;20021;-74
2023/01/02 02:07:06;;;;;;;23.35;6.72;;;10.60;99.90;;;;;;5046869;28;20025;-73
2023/01/02 02:09:37;;;;;;;17.17;6.82;;;10.60;99.90;;;;;;5065183;28;20036;-72
2023/01/02 02:12:05;;;;;;;22.50;6.70;;;10.60;99.90;;;;;;5064898;28;20032;-74
2023/01/02 02:14:31;;;;;;;21.63;7.10;;;10.60;99.90;;;;;;5065014;28;20041;-73
2023/01/02 02:17:12;;;;;;;24.83;7.53;;;10.60;99.90;;;;;;5046500;28;20132;-72
2023/01/02 02:20:16;;;;;;;16.52;6.72;;;10.60;99.90;;;;;;5047020;28;20072;-73
2023/01/02 02:22:44;;;;;;;20.45;6.85;;;10.60;99.90;;;;;;5046737;28;20050;-73
2023/01/02 02:25:29;;;;;;;18.02;7.03;;;10.60;99.90;;;;;;5042075;28;20065;-74
2023/01/02 02:28:23;;;;;;;21.25;7.15;;;10.60;99.90;;;;;;5042117;28;20021;-73
2023/01/02 02:31:08;;;;;;;18.23;6.53;;;10.70;99.90;;;;;;5042235;28;20038;-72
2023/01/02 02:33:50;;;;;;;14.90;6.82;;;10.70;99.90;;;;;;5043546;28;20719;-73
2023/01/02 02:36:38;;;;;;;18.83;7.00;;;10.70;99.90;;;;;;5024994;28;20053;-73
2023/01/02 02:39:45;;;;;;;18.90;7.13;;;10.70;99.90;;;;;;5043470;28;20033;-73
2023/01/02 02:42:34;;;;;;;21.52;7.55;;;10.70;99.90;;;;;;5040558;28;20041;-75
2023/01/02 02:45:02;;;;;;;17.65;7.68;;;10.70;99.90;;;;;;5041871;28;20502;-72
2023/01/02 02:48:19;;;;;;;16.88;7.40;;;10.70;99.90;;;;;;5041614;28;20398;-73
2023/01/02 02:51:04;;;;;;;22.23;7.25;;;10.70;99.90;;;;;;4988838;28;20038;-72
2023/01/02 02:53:42;;;;;;;17.98;8.05;;;10.70;99.90;;;;;;5024251;28;20045;-73
2023/01/02 02:56:10;;;;;;;15.85;6.63;;;10.70;99.90;;;;;;5040631;28;20029;-73
2023/01/02 02:58:39;;;;;;;15.63;6.93;;;10.70;99.90;;;;;;5036218;28;20033;-74
2023/01/02 03:01:07;;;;;;;23.55;7.07;;;10.70;99.90;;;;;;5042894;28;20022;-73
2023/01/02 03:03:33;;;;;;;18.42;7.43;;;10.70;99.90;;;;;;5042841;28;20044;-72
2023/01/02 03:06:05;;;;;;;18.88;7.82;;;10.70;99.90;;;;;;5042518;28;20034;-74
2023/01/02 03:08:43;;;;;;;15.32;7.18;;;10.70;99.90;;;;;;5042703;28;20025;-71
2023/01/02 03:11:10;;;;;;;15.60;7.47;;;10.70;99.90;;;;;;5023710;28;20057;-74
2023/01/02 03:13:49;;;;;;;18.38;7.35;;;10.70;99.90;;;;;;5024767;28;20041;-71
2023/01/02 03:16:40;;;;;;;23.23;8.48;;;10.80;99.90;;;;;;5036047;28;20037;-74
2023/01/02 03:19:22;;;;;;;20.63;8.27;;;10.80;99.90;;;;;;5042362;28;20033;-72
2023/01/02 03:21:53;;;;;;;26.10;9.77;;;10.90;99.90;;;;;;5024158;28;20053;-74
2023/01/02 03:24:21;;;;;;;24.05;8.98;;;10.90;99.90;;;;;;5025379;28;20029;-74
2023/01/02 03:26:53;;;;;;;28.27;9.60;;;11.10;99.90;;;;;;5025304;28;20021;-74
2023/01/02 03:29:25;;;;;;;23.45;9.65;;;11.10;99.90;;;;;;5041776;28;20036;-73
2023/01/02 03:31:54;;;;;;;25.65;9.27;;;11.20;99.90;;;;;;5042565;28;20113;-75
2023/01/02 03:34:26;;;;;;;23.67;9.48;;;11.30;99.90;;;;;;5042721;28;20081;-72
2023/01/02 03:37:00;;;;;;;21.45;9.38;;;11.30;99.90;;;;;;5042964;28;20052;-72
2023/01/02 03:39:29;;;;;;;31.70;11.70;;;11.40;99.90;;;;;;5041464;28;20021;-71
2023/01/02 03:42:00;;;;;;;25.48;12.00;;;11.50;99.90;;;;;;5024877;28;20029;-71
2023/01/02 03:44:34;;;;;;;26.88;12.10;;;11.50;99.90;;;;;;5043040;28;20033;-73
2023/01/02 03:47:16;;;;;;;40.40;15.07;;;11.60;99.90;;;;;;5042991;28;20044;-73
2023/01/02 03:49:46;;;;;;;32.42;10.95;;;11.60;99.90;;;;;;5042584;28;20081;-73
2023/01/02 03:52:11;;;;;;;41.72;14.25;;;11.70;99.90;;;;;;5024751;28;20093;-73
2023/01/02 03:54:37;;;;;;;34.42;11.13;;;11.60;99.90;;;;;;5025169;28;20069;-74
2023/01/02 03:57:13;;;;;;;26.25;11.05;;;11.60;99.90;;;;;;5042522;28;20026;-74
2023/01/02 04:00:08;;;;;;;27.23;9.98;;;11.60;99.90;;;;;;5024941;28;20017;-73
2023/01/02 04:03:03;;;;;;;24.77;9.48;;;11.60;99.90;;;;;;5022443;28;20033;-72
2023/01/02 04:05:51;;;;;;;37.65;11.30;;;11.70;99.90;;;;;;5038218;28;20105;-73
2023/01/02 04:08:23;;;;;;;50.42;17.23;;;11.70;99.90;;;;;;5024858;28;20104;-74
2023/01/02 04:10:51;;;;;;;26.17;9.15;;;11.70;99.90;;;;;;5042183;28;20029;-74
2023/01/02 04:13:22;;;;;;;36.75;13.70;;;11.60;99.90;;;;;;5042010;28;20021;-73
2023/01/02 04:15:51;;;;;;;31.83;11.10;;;11.70;99.90;;;;;;5042229;28;20068;-73
2023/01/02 04:18:25;;;;;;;25.02;10.07;;;11.70;99.90;;;;;;5042507;28;20021;-73
2023/01/02 04:20:57;;;;;;;23.85;9.15;;;11.70;99.90;;;;;;5042406;28;20097;-72
2023/01/02 04:23:29;;;;;;;34.03;12.02;;;11.70;99.90;;;;;;5059021;28;20033;-74
2023/01/02 04:26:01;;;;;;;25.40;9.02;;;11.70;99.90;;;;;;5060801;28;20103;-73
2023/01/02 04:28:30;;;;;;;41.58;13.32;;;11.70;99.90;;;;;;5060427;28;20033;-73
2023/01/02 04:31:07;;;;;;;25.23;8.90;;;11.70;99.90;;;;;;5052118;28;20427;-73
2023/01/02 04:33:38;;;;;;;24.92;9.10;;;11.70;99.90;;;;;;5059702;28;20067;-74
2023/01/02 04:36:09;;;;;;;25.95;8.75;;;11.70;99.90;;;;;;5043718;28;20808;-72
2023/01/02 04:38:35;;;;;;;30.23;10.43;;;11.70;99.90;;;;;;5042676;28;20036;-73
2023/01/02 04:41:02;;;;;;;23.23;10.32;;;11.80;99.90;;;;;;5042455;28;20029;-73
2023/01/02 04:43:28;;;;;;;28.48;13.52;;;11.60;99.90;;;;;;5060306;28;20045;-72
2023/01/02 04:45:53;;;;;;;22.35;9.70;;;11.70;99.90;;;;;;5042255;28;20021;-74
2023/01/02 04:48:19;;;;;;;29.20;10.38;;;11.60;99.90;;;;;;5060726;28;20080;-70
2023/01/02 04:50:44;;;;;;;23.40;9.75;;;11.60;99.90;;;;;;5056854;28;20029;-75
2023/01/02 04:53:10;;;;;;;31.77;10.80;;;11.60;99.90;;;;;;5056351;28;20040;-75
2023/01/02 04:55:37;;;;;;;28.20;10.52;;;11.60;99.90;;;;;;5060873;28;20040;-73
2023/01/02 04:58:03;;;;;;;28.80;9.73;;;11.60;99.90;;;;;;5060284;28;20032;-74
2023/01/02 05:00:29;;;;;;;22.98;9.45;;;11.50;99.90;;;;;;5042113;28;20025;-72
2023/01/02 05:02:54;;;;;;;34.75;10.88;;;11.60;99.90;;;;;;5052162;28;20446;-72
2023/01/02 05:05:20;;;;;;;25.60;9.30;;;11.50;99.90;;;;;;5043183;28;20498;-72
2023/01/02 05:07:45;;;;;;;24.80;9.98;;;11.50;99.90;;;;;;5060275;28;20021;-73
2023/01/02 05:10:11;;;;;;;29.55;12.18;;;11.50;99.90;;;;;;5034494;28;20017;-72
2023/01/02 05:12:38;;;;;;;34.10;10.98;;;11.50;99.90;;;;;;5060088;28;20184;-72
2023/01/02 05:15:05;;;;;;;31.17;13.35;;;11.40;99.90;;;;;;5058446;28;20024;-72
2023/01/02 05:17:35;;;;;;;43.00;14.30;;;11.40;99.90;;;;;;5042081;28;20029;-71
2023/01/02 05:20:02;;;;;;;37.97;13.73;;;11.40;99.90;;;;;;5059020;28;20028;-75
2023/01/02 05:25:11;;;;;;;36.20;14.27;;;11.40;99.90;;;;;;5058896;28;20389;-74
2023/01/02 05:27:37;;;;;;;33.80;14.45;;;11.40;99.90;;;;;;5058902;28;20033;-72
2023/01/02 05:30:03;;;;;;;42.53;15.95;;;11.50;99.90;;;;;;5058960;28;20017;-74
2023/01/02 05:32:29;;;;;;;33.65;14.45;;;11.50;99.90;;;;;;5058672;28;20059;-73
2023/01/02 05:34:54;;;;;;;38.10;15.52;;;11.50;99.90;;;;;;5058665;28;20079;-73
2023/01/02 05:37:20;;;;;;;35.22;13.65;;;11.50;99.90;;;;;;5041280;28;20115;-74
2023/01/02 05:39:45;;;;;;;35.38;16.38;;;11.50;99.90;;;;;;5041472;28;20060;-73
2023/01/02 05:42:11;;;;;;;35.67;16.27;;;11.50;99.90;;;;;;5041682;28;20025;-73
2023/01/02 05:44:36;;;;;;;40.75;17.23;;;11.60;99.90;;;;;;5041595;28;20033;-73
2023/01/02 05:47:02;;;;;;;47.63;19.52;;;11.60;99.90;;;;;;5058500;28;20036;-75
2023/01/02 05:49:27;;;;;;;67.57;21.05;;;11.60;99.90;;;;;;5042753;28;20028;-70
2023/01/02 05:51:53;;;;;;;48.67;19.38;;;11.60;99.90;;;;;;5042314;28;20053;-72
2023/01/02 05:54:18;;;;;;;45.83;19.45;;;11.60;99.90;;;;;;5059757;28;20033;-71
2023/01/02 05:56:44;;;;;;;32.72;17.95;;;11.60;99.90;;;;;;5059432;28;20028;-73
2023/01/02 05:59:09;;;;;;;42.33;17.65;;;11.60;99.90;;;;;;5041902;28;20055;-73
2023/01/02 06:01:35;;;;;;;39.30;17.67;;;11.60;99.90;;;;;;5059717;28;20025;-74
2023/01/02 06:04:01;;;;;;;32.85;17.13;;;11.60;99.90;;;;;;5042480;28;20021;-74
2023/01/02 06:06:35;;;;;;;34.20;17.25;;;11.60;99.90;;;;;;5056867;28;20029;-73
2023/01/02 06:09:01;;;;;;;39.85;16.52;;;11.60;99.90;;;;;;5054447;28;20053;-73
2023/01/02 06:11:28;;;;;;;33.85;16.83;;;11.60;99.90;;;;;;5059098;28;20056;-73
2023/01/02 06:13:54;;;;;;;39.15;17.20;;;11.60;99.90;;;;;;5058883;28;20087;-72
2023/01/02 06:16:20;;;;;;;35.47;16.33;;;11.60;99.90;;;;;;5058246;28;20047;-74
2023/01/02 06:18:45;;;;;;;32.25;16.05;;;11.60;99.90;;;;;;5058278;28;20032;-73
2023/01/02 06:21:13;;;;;;;38.22;17.65;;;11.60;99.90;;;;;;5041640;28;20049;-73
2023/01/02 06:23:40;;;;;;;37.75;17.10;;;11.60;99.90;;;;;;5058685;28;20031;-72
2023/01/02 06:26:11;;;;;;;40.58;16.65;;;11.60;99.90;;;;;;5042010;28;20052;-74
2023/01/02 06:28:37;;;;;;;37.20;16.13;;;11.60;99.90;;;;;;5059458;28;20021;-74
2023/01/02 06:31:05;;;;;;;34.65;16.55;;;11.70;99.90;;;;;;5062239;28;20029;-75
2023/01/02 06:33:31;;;;;;;36.00;16.40;;;11.60;99.90;;;;;;5062373;28;20035;-75
2023/01/02 06:36:02;;;;;;;38.17;16.08;;;11.60;99.90;;;;;;5061704;28;20048;-72
2023/01/02 06:38:28;;;;;;;42.00;16.88;;;11.60;99.90;;;;;;5061392;28;20716;-73
2023/01/02 06:40:55;;;;;;;42.75;17.15;;;11.70;99.90;;;;;;5061790;28;20035;-75
2023/01/02 06:43:21;;;;;;;44.22;16.30;;;11.60;99.90;;;;;;5061666;28;20049;-75
2023/01/02 06:45:46;;;;;;;39.65;15.13;;;11.60;99.90;;;;;;5044120;28;20032;-74
2023/01/02 06:48:12;;;;;;;27.33;13.00;;;11.70;99.90;;;;;;5061876;28;20058;-75
2023/01/02 06:50:37;;;;;;;40.58;16.45;;;11.70;99.90;;;;;;5045256;28;20029;-75
2023/01/02 06:53:03;;;;;;;36.25;15.60;;;11.70;99.90;;;;;;5063501;28;20052;-74
2023/01/02 06:55:28;;;;;;;31.00;13.07;;;11.70;99.90;;;;;;5062260;28;20036;-73
2023/01/02 06:57:54;;;;;;;35.45;15.43;;;11.70;99.90;;;;;;5057846;28;20016;-76
2023/01/02 07:00:19;;;;;;;38.38;16.10;;;11.70;99.90;;;;;;5058955;28;20025;-72
2023/01/02 07:02:45;;;;;;;40.85;17.42;;;11.70;99.90;;;;;;5062645;28;20021;-73
2023/01/02 07:05:11;;;;;;;50.50;18.33;;;11.70;99.90;;;;;;5060697;28;20059;-75
2023/01/02 07:07:37;;;;;;;40.97;18.85;;;11.70;99.90;;;;;;5058868;28;20116;-74
2023/01/02 07:10:03;;;;;;;37.63;18.55;;;11.80;99.90;;;;;;5044721;28;20051;-74
2023/01/02 07:12:29;;;;;;;39.47;17.52;;;11.70;99.90;;;;;;5061813;28;20025;-70
2023/01/02 07:14:55;;;;;;;40.63;17.40;;;11.70;99.90;;;;;;5061154;28;20501;-70
2023/01/02 07:17:20;;;;;;;44.60;19.42;;;11.70;99.90;;;;;;5044510;28;20473;-72
2023/01/02 07:19:46;;;;;;;42.85;19.05;;;11.80;99.90;;;;;;5060851;28;20056;-71
2023/01/02 07:22:11;;;;;;;37.85;19.00;;;11.80;99.90;;;;;;5052804;28;20055;-72
2023/01/02 07:24:37;;;;;;;43.05;17.42;;;11.80;99.90;;;;;;5034043;28;20119;-72
2023/01/02 07:27:03;;;;;;;47.10;19.23;;;11.80;99.90;;;;;;5047948;28;20076;-72
2023/01/02 07:29:29;;;;;;;35.22;16.17;;;11.80;99.90;;;;;;5051371;28;20409;-70
2023/01/02 07:31:54;;;;;;;32.00;14.10;;;11.80;99.90;;;;;;5034756;28;20025;-71
2023/01/02 07:34:20;;;;;;;36.35;16.52;;;11.80;99.90;;;;;;5049695;28;20041;-71
2023/01/02 07:36:48;;;;;;;41.00;18.35;;;11.80;99.90;;;;;;5033579;28;20030;-72
2023/01/02 07:39:13;;;;;;;42.53;18.45;;;11.90;99.90;;;;;;5047509;28;20025;-71
2023/01/02 07:41:39;;;;;;;45.25;17.92;;;11.90;99.90;;;;;;5042207;28;20076;-71
2023/01/02 07:44:05;;;;;;;38.70;18.60;;;11.90;99.90;;;;;;5049300;28;20040;-72
2023/01/02 07:46:30;;;;;;;38.17;17.13;;;11.90;99.90;;;;;;5038237;28;20029;-69
2023/01/02 07:48:56;;;;;;;43.50;20.08;;;12.00;99.90;;;;;;5041694;28;20093;-70
2023/01/02 07:51:21;;;;;;;65.65;29.85;;;11.90;99.90;;;;;;5034685;28;20065;-70
2023/01/02 07:53:47;;;;;;;35.80;17.40;;;12.00;99.90;;;;;;5027832;28;20037;-70
2023/01/02 07:56:12;;;;;;;37.90;16.17;;;12.00;99.90;;;;;;5034770;28;20109;-72
2023/01/02 07:58:38;;;;;;;35.05;17.98;;;12.00;99.90;;;;;;5042872;28;20036;-72
2023/01/02 08:01:09;;;;;;;35.83;18.10;;;12.00;99.90;;;;;;5043486;28;20470;-73
2023/01/02 08:03:35;;;;;;;25.80;12.73;;;12.00;99.90;;;;;;5039634;28;20112;-71
2023/01/02 08:06:13;;;;;;;37.47;15.07;;;12.00;99.90;;;;;;5036201;28;20112;-72
2023/01/02 08:08:39;;;;;;;34.72;17.35;;;12.00;99.90;;;;;;5032966;28;20382;-70
2023/01/02 08:11:07;;;;;;;35.72;15.10;;;12.00;99.90;;;;;;5046964;28;20111;-72
2023/01/02 08:13:32;;;;;;;35.33;14.88;;;12.10;99.90;;;;;;5045343;28;20044;-70
2023/01/02 08:16:03;;;;;;;32.22;14.80;;;12.10;99.90;;;;;;5043360;28;20037;-69
2023/01/02 08:18:28;;;;;;;42.63;14.90;;;12.10;99.90;;;;;;5028576;28;20025;-71
2023/01/02 08:20:54;;;;;;;28.55;12.85;;;12.10;99.90;;;;;;5043266;28;20111;-70
2023/01/02 08:23:20;;;;;;;30.85;15.10;;;12.20;99.90;;;;;;5039766;28;20065;-70
2023/01/02 08:25:45;;;;;;;27.02;12.45;;;12.10;99.90;;;;;;5040095;28;20029;-70
2023/01/02 08:28:11;;;;;;;49.88;20.98;;;12.10;99.90;;;;;;5040735;28;20032;-72
2023/01/02 08:30:39;;;;;;;42.30;20.30;;;12.10;99.90;;;;;;5039622;28;20301;-72
2023/01/02 08:33:05;;;;;;;33.85;16.90;;;12.20;99.90;;;;;;5040884;28;20033;-71
2023/01/02 08:35:30;;;;;;;27.95;14.10;;;12.20;99.90;;;;;;5039283;28;20343;-71
2023/01/02 08:37:56;;;;;;;30.08;13.05;;;12.10;99.90;;;;;;5036039;28;20033;-71
2023/01/02 08:40:22;;;;;;;31.75;16.13;;;12.20;99.90;;;;;;5023892;28;20077;-69
2023/01/02 08:42:47;;;;;;;30.38;13.32;;;12.20;99.90;;;;;;5040983;28;20429;-70
2023/01/02 08:45:13;;;;;;;31.25;13.73;;;12.10;99.90;;;;;;5038840;28;20040;-71
2023/01/02 08:47:38;;;;;;;24.67;13.15;;;12.20;99.90;;;;;;5039112;28;20033;-70
2023/01/02 08:50:05;;;;;;;22.60;11.00;;;12.20;99.90;;;;;;5039367;28;20029;-70
2023/01/02 08:52:30;;;;;;;23.35;11.68;;;12.20;99.90;;;;;;5022880;28;20529;-70
2023/01/02 08:54:56;;;;;;;23.02;11.40;;;12.40;99.90;;;;;;5039395;28;20053;-71
2023/01/02 08:57:22;;;;;;;31.85;12.43;;;12.30;99.90;;;;;;5040294;28;20025;-69
2023/01/02 08:59:47;;;;;;;27.30;13.13;;;12.30;99.90;;;;;;5041259;28;20051;-71
2023/01/02 09:02:14;;;;;;;20.77;10.00;;;12.30;99.90;;;;;;5023232;28;20536;-70
2023/01/02 09:04:40;;;;;;;21.75;9.35;;;12.30;99.90;;;;;;5039431;28;20080;-71
2023/01/02 09:07:06;;;;;;;23.88;11.18;;;12.30;99.90;;;;;;5040173;28;20040;-71
2023/01/02 09:09:31;;;;;;;23.30;10.00;;;12.30;99.90;;;;;;5040093;28;20029;-72
2023/01/02 09:11:58;;;;;;;25.27;10.30;;;12.30;99.90;;;;;;5038190;28;20718;-70
2023/01/02 09:14:23;;;;;;;20.77;9.88;;;12.30;99.90;;;;;;5039765;28;20041;-68
2023/01/02 09:16:50;;;;;;;24.13;10.65;;;12.30;99.90;;;;;;5039112;28;20040;-70
2023/01/02 09:19:16;;;;;;;18.20;8.80;;;12.30;99.90;;;;;;5039055;28;20116;-71
2023/01/02 09:21:41;;;;;;;24.88;10.82;;;12.30;99.90;;;;;;5026593;28;20083;-72
2023/01/02 09:24:08;;;;;;;22.65;11.20;;;12.30;99.90;;;;;;5059640;28;20033;-71
2023/01/02 09:26:33;;;;;;;18.13;9.63;;;12.30;99.90;;;;;;5057018;28;20040;-72
2023/01/02 09:28:59;;;;;;;16.13;7.95;;;12.30;99.90;;;;;;5058925;28;20037;-72
2023/01/02 09:31:24;;;;;;;14.20;6.72;;;12.20;99.90;;;;;;5059565;28;20036;-70
2023/01/02 09:33:52;;;;;;;20.50;9.05;;;12.20;99.90;;;;;;5060552;28;20037;-69
2023/01/02 09:36:18;;;;;;;17.42;8.80;;;12.20;99.90;;;;;;5053441;28;20029;-69
2023/01/02 09:38:50;;;;;;;19.05;8.90;;;12.10;99.90;;;;;;5058427;28;20405;-68
2023/01/02 09:41:36;;;;;;;15.73;8.50;;;12.10;99.90;;;;;;5041018;28;20425;-70
2023/01/02 09:44:44;;;;;;;16.23;7.40;;;12.10;99.90;;;;;;5042082;28;20039;-70
2023/01/02 09:47:09;;;;;;;16.85;7.13;;;12.00;99.90;;;;;;5059148;28;20029;-71
2023/01/02 09:49:42;;;;;;;15.68;6.95;;;12.00;99.90;;;;;;5060615;28;20021;-73
2023/01/02 09:52:21;;;;;;;12.70;7.03;;;12.10;99.90;;;;;;5060162;28;20027;-71
2023/01/02 09:54:47;;;;;;;11.10;5.60;;;12.00;99.90;;;;;;5060340;28;20032;-70
2023/01/02 09:57:27;;;;;;;22.63;7.15;;;12.00;99.90;;;;;;5059484;28;20055;-71
2023/01/02 10:00:16;;;;;;;15.10;6.13;;;12.00;99.90;;;;;;5041012;28;20025;-69
2023/01/02 10:03:03;;;;;;;13.52;6.15;;;12.00;99.90;;;;;;5041445;28;20021;-71
2023/01/02 10:05:34;;;;;;;12.75;6.25;;;11.90;99.90;;;;;;5060672;28;20029;-71
2023/01/02 10:08:24;;;;;;;12.38;6.00;;;12.00;99.90;;;;;;5062997;28;20028;-69
2023/01/02 10:11:05;;;;;;;10.88;6.25;;;12.00;99.90;;;;;;5045790;28;20049;-71
2023/01/02 10:13:34;;;;;;;10.25;4.63;;;11.90;99.90;;;;;;5063668;28;20033;-70
2023/01/02 10:16:02;;;;;;;11.07;4.88;;;11.90;99.90;;;;;;5043496;28;20116;-71
2023/01/02 10:18:37;;;;;;;9.60;5.10;;;11.80;99.90;;;;;;5043369;28;20041;-69
2023/01/02 10:21:14;;;;;;;11.13;5.05;;;11.80;99.90;;;;;;5063445;28;20029;-71
2023/01/02 10:23:51;;;;;;;10.80;4.55;;;11.80;99.90;;;;;;5043334;28;20100;-70
2023/01/02 10:26:19;;;;;;;12.20;4.03;;;11.80;99.90;;;;;;5060644;28;20070;-68
2023/01/02 10:29:03;;;;;;;6.75;3.45;;;11.70;99.90;;;;;;5056936;28;20175;-68
2023/01/02 10:31:41;;;;;;;5.40;3.28;;;11.60;99.90;;;;;;5053928;28;20033;-69
2023/01/02 10:34:16;;;;;;;4.80;3.20;;;11.30;99.90;;;;;;5057724;28;20102;-71
2023/01/02 10:36:44;;;;;;;4.70;2.65;;;11.10;99.90;;;;;;5063108;28;20092;-71
2023/01/02 10:39:16;;;;;;;4.10;2.40;;;11.00;99.90;;;;;;5056264;28;20477;-68
2023/01/02 10:41:49;;;;;;;3.30;2.20;;;10.80;99.90;;;;;;5056226;28;20029;-72
2023/01/02 10:44:31;;;;;;;4.47;2.60;;;10.70;99.90;;;;;;5056325;28;20060;-70
2023/01/02 10:47:05;;;;;;;4.07;3.00;;;10.60;99.90;;;;;;5053712;28;20025;-69
2023/01/02 10:49:33;;;;;;;4.13;2.80;;;10.60;99.90;;;;;;5059886;28;20059;-69
2023/01/02 10:52:10;;;;;;;3.72;2.75;;;10.60;99.90;;;;;;5058779;28;20064;-69
2023/01/02 10:54:54;;;;;;;4.93;2.33;;;10.50;99.90;;;;;;5062929;28;20029;-71
2023/01/02 10:57:41;;;;;;;4.85;2.30;;;10.40;99.90;;;;;;5062687;28;20074;-68
2023/01/02 11:00:26;;;;;;;4.20;2.70;;;10.40;99.90;;;;;;5062977;28;20103;-70
2023/01/02 11:02:54;;;;;;;3.88;2.35;;;10.30;99.90;;;;;;5062303;28;20017;-68
2023/01/02 11:05:24;;;;;;;3.00;2.00;;;10.20;99.90;;;;;;5062963;28;20025;-70
2023/01/02 11:07:51;;;;;;;1.52;1.15;;;10.20;99.90;;;;;;5062570;28;20017;-67
2023/01/02 11:10:28;;;;;;;0.90;0.77;;;10.00;99.90;;;;;;5044010;28;20078;-69
2023/01/02 11:12:55;;;;;;;1.73;0.80;;;9.90;99.90;;;;;;5055151;28;20029;-69
2023/01/02 11:15:29;;;;;;;1.00;0.60;;;9.80;99.90;;;;;;5052719;28;20230;-71
2023/01/02 11:17:56;;;;;;;1.33;0.80;;;9.70;99.90;;;;;;5075332;28;20032;-69
2023/01/02 11:20:29;;;;;;;1.38;0.95;;;9.70;99.90;;;;;;5041928;28;20024;-70
2023/01/02 11:22:57;;;;;;;1.77;0.80;;;9.60;99.90;;;;;;5057469;28;20049;-71
2023/01/02 11:25:28;;;;;;;2.80;1.35;;;9.60;99.90;;;;;;5062034;28;20020;-69
2023/01/02 11:27:59;;;;;;;2.25;1.00;;;9.70;99.90;;;;;;5052690;28;20025;-71
2023/01/02 11:30:35;;;;;;;2.70;1.10;;;9.70;99.90;;;;;;5063021;28;20021;-71
2023/01/02 11:33:07;;;;;;;1.80;0.93;;;9.60;99.90;;;;;;5062694;28;20498;-69
2023/01/02 11:35:47;;;;;;;1.50;1.05;;;9.60;99.90;;;;;;5062887;28;20451;-71
2023/01/02 11:38:15;;;;;;;1.13;0.65;;;9.60;99.90;;;;;;5044632;28;20032;-69
2023/01/02 11:40:52;;;;;;;2.63;1.00;;;9.60;99.90;;;;;;5052726;28;20037;-68
2023/01/02 11:46:23;;;;;;;4.10;1.30;;;9.50;99.90;;;;;;5061768;28;20465;-70
2023/01/02 11:48:52;;;;;;;1.98;0.80;;;9.50;99.90;;;;;;5059884;28;20021;-71
2023/01/02 11:51:20;;;;;;;2.72;1.85;;;9.50;99.90;;;;;;5057260;28;20032;-69
2023/01/02 11:53:50;;;;;;;2.28;1.15;;;9.50;99.90;;;;;;5056945;28;20408;-70
2023/01/02 11:56:25;;;;;;;4.20;1.75;;;9.50;99.90;;;;;;5061480;28;20029;-70
2023/01/02 11:59:13;;;;;;;6.88;3.60;;;9.60;99.90;;;;;;5053929;28;20033;-69
2023/01/02 12:02:04;;;;;;;2.58;1.75;;;9.70;99.90;;;;;;5055069;28;20033;-71
2023/01/02 12:04:30;;;;;;;3.00;1.80;;;9.70;99.90;;;;;;5059815;28;20029;-71
2023/01/02 12:07:17;;;;;;;3.97;2.38;;;9.70;99.90;;;;;;5054074;28;20025;-70
2023/01/02 12:09:53;;;;;;;4.95;2.10;;;9.70;99.90;;;;;;5062196;28;20076;-72
2023/01/02 12:13:01;;;;;;;3.78;1.90;;;9.70;99.90;;;;;;5061725;28;20025;-70
2023/01/02 12:15:46;;;;;;;6.60;2.20;;;9.60;99.90;;;;;;5060893;28;20037;-70
2023/01/02 12:18:46;;;;;;;3.35;1.90;;;9.60;99.90;;;;;;5060889;28;20028;-69
2023/01/02 12:21:24;;;;;;;5.00;2.00;;;9.60;99.90;;;;;;5060427;28;20025;-72
2023/01/02 12:24:12;;;;;;;4.93;1.48;;;9.50;99.90;;;;;;5060342;28;20028;-69
2023/01/02 12:26:57;;;;;;;2.72;1.33;;;9.50;99.90;;;;;;5060033;28;20040;-72
2023/01/02 12:29:50;;;;;;;2.47;1.70;;;9.40;99.90;;;;;;5060966;28;20037;-68
2023/01/02 12:32:36;;;;;;;5.13;1.60;;;9.50;99.90;;;;;;5046658;28;20071;-68
2023/01/02 12:35:22;;;;;;;3.75;1.55;;;9.50;99.90;;;;;;5052227;28;20148;-68
2023/01/02 12:37:57;;;;;;;3.45;1.60;;;9.50;99.90;;;;;;5047845;28;20115;-70
2023/01/02 12:40:45;;;;;;;4.25;1.50;;;9.50;99.90;;;;;;5058305;28;20021;-71
2023/01/02 12:43:25;;;;;;;4.30;2.10;;;9.50;99.90;;;;;;5058466;28;20029;-70
2023/01/02 12:46:16;;;;;;;2.97;1.70;;;9.60;99.90;;;;;;5057652;28;20028;-69
2023/01/02 12:48:57;;;;;;;4.35;1.55;;;9.50;99.90;;;;;;5043576;28;20024;-70
2023/01/02 12:51:44;;;;;;;3.50;1.48;;;9.50;99.90;;;;;;5060357;28;20021;-71
2023/01/02 12:54:09;;;;;;;5.10;2.10;;;9.60;99.90;;;;;;5051053;28;20033;-70
2023/01/02 12:56:59;;;;;;;4.57;1.92;;;9.50;99.90;;;;;;5051126;28;20548;-69
2023/01/02 12:59:45;;;;;;;7.18;1.60;;;9.50;99.90;;;;;;5059721;28;21060;-69